Norfolk, Virginia
Traffic Map
Current Weather Conditions
Norfolk, Virginia
Clear
Clear
37°
Feels Like: 37°
Wind Chill: 37° Ceiling: Unl
Heat Index: 37° Visibility: 10mi
Dew Point: 30° Wind: 3mph
Humidity: 76% Direction: 60° (ENE)
Pressure: 30.31in Gusts: 0mph
Raw Report DataKORF 212251Z AUTO 06003KT 10SM CLR 03/M01 A3031 RMK AO2 SLP262 T00281011 TSNO
Traffic Incident Summary
Active as of:
Severity:
Category:
InformationThere was an issue retrieving the traffic information for this location. Please try a different location or try again shortly.
Advertisements
Track Severe Weather on mobile